Aérodrome :
LOGIN :

S'inscrire | Disclaimer

   EN    FR    IT 

 










Légende :    VFR   VFR Marginal   IFR   IFR Intensif   IFR Très Intensif
Visi : 
Plafond : 
>= 8 km
>= 3000ft
5 à 8 km
1000 à 3000 ft
1500m à 5 km
500 à 1000 ft
800 à 1500m
200 à 500 ft
< 800m
< 200 ft
Symboles :   Orages  Brouillard  Fortes neiges  Fortes précipitations  Vent > 20 kt
SIGMETs :   Divers  Orages  Givrage  Turbulence  Onde Orograph.  Cendres Volcan.







- Altitude de l'aérodrome : 144 ft
- Code IATA : PGF
- Voir les cartes d'approche


LFMP - Perpignan

DERNIER METAR :
  • 260700Z AUTO 00000KT CAVOK 07/04 Q1018 NOSIG

METARs EXPIRÉS :
  • 260630Z AUTO VRB02KT CAVOK 05/03 Q1018 NOSIG
  • 260600Z AUTO 24005KT CAVOK 04/02 Q1017 TEMPO 4000 BR
  • 260530Z AUTO 20006KT CAVOK 04/03 Q1017 TEMPO 4000 BR
  • 260500Z AUTO 22004KT 180V260 CAVOK 04/02 Q1016 TEMPO 4000 BR
  • 260430Z AUTO VRB03KT CAVOK 04/02 Q1016 TEMPO 4000 BR

TAF TAF LFMP
Valide du 26 à 03h jusqu'au 27 à 03h UTC


260200Z 2603/2703 VRB05KT CAVOK
TEMPO 2603/2607 4000 BR NSC
TEMPO 2610/2614 BKN020
ATIS : +33 4 68 63 75 12
Pas de NOTAMs connus pour ce terrain.



MET'MAP, la Météo Aéronautique d'un coup d'oeil ! - Copyright ORBIFLY Décembre 2007 - Disclaimer

ORBIFLY MET'MAP TEAM :

Programmation & Développement : Alexandra Zaïnal
Conception & Développement : Baudouin d'Aumeries
Co-Programmation & Développement : Marc-Olivier Méhu
Soutien technique & logistique : Manuel Goepfert

Contact : metmap@orbifly.com




SOURCES & CREDITS :

   NOAA